createdAt,value
2023-04-03T00:02:20.911Z,352.50
2023-04-03T00:07:28.335Z,352.25
2023-04-03T00:12:35.695Z,352.13
2023-04-03T00:17:43.163Z,352.01
2023-04-03T00:22:50.491Z,351.81
2023-04-03T00:27:57.855Z,351.38
2023-04-03T00:33:05.276Z,350.97
2023-04-03T00:38:12.391Z,350.74
2023-04-03T00:43:19.561Z,350.69
2023-04-03T00:48:26.956Z,350.47
2023-04-03T00:53:34.394Z,350.02
2023-04-03T00:58:41.755Z,349.72
2023-04-03T01:03:49.500Z,349.45
2023-04-03T01:08:56.916Z,349.43
2023-04-03T01:14:04.541Z,349.03
2023-04-03T01:19:16.744Z,348.67
2023-04-03T01:24:24.278Z,348.63
2023-04-03T01:29:31.679Z,347.99
2023-04-03T01:34:39.296Z,347.89
2023-04-03T01:39:47.628Z,347.91
2023-04-03T01:45:10.022Z,347.51
2023-04-03T01:50:17.452Z,347.75
2023-04-03T01:55:25.087Z,347.30
2023-04-03T02:00:32.689Z,347.04
2023-04-03T02:05:40.021Z,346.66
2023-04-03T02:10:47.639Z,346.25
2023-04-03T02:15:57.165Z,345.83
2023-04-03T02:21:04.545Z,345.94
2023-04-03T02:26:12.243Z,345.30
2023-04-03T02:31:19.762Z,345.57
2023-04-03T02:36:27.098Z,344.89
2023-04-03T02:41:34.476Z,345.12
2023-04-03T02:46:45.456Z,344.75
2023-04-03T02:51:52.722Z,344.29
2023-04-03T02:57:00.219Z,344.07
2023-04-03T03:02:07.733Z,343.45
2023-04-03T03:07:15.497Z,343.58
2023-04-03T03:12:23.087Z,342.39
2023-04-03T03:17:30.346Z,342.01
2023-04-03T03:22:37.588Z,340.88
2023-04-03T03:27:44.816Z,341.33
2023-04-03T03:32:52.418Z,342.04
2023-04-03T03:38:22.500Z,342.35
2023-04-03T03:43:26.572Z,341.53
2023-04-03T03:48:34.066Z,341.44
2023-04-03T03:53:41.531Z,340.85
2023-04-03T03:58:48.991Z,340.73
2023-04-03T04:04:01.097Z,338.92
2023-04-03T04:09:08.354Z,340.37
2023-04-03T04:14:15.743Z,339.69
2023-04-03T04:19:23.065Z,339.93
2023-04-03T04:24:30.405Z,339.96
2023-04-03T04:29:37.998Z,339.43
2023-04-03T04:34:45.137Z,339.69
2023-04-03T04:39:52.390Z,339.51
2023-04-03T04:44:59.572Z,339.69
2023-04-03T04:50:06.753Z,339.50
2023-04-03T04:55:13.931Z,339.72
2023-04-03T05:00:21.140Z,339.32
2023-04-03T05:05:28.305Z,339.92
2023-04-03T05:10:35.485Z,339.58
2023-04-03T05:15:43.004Z,339.61
2023-04-03T05:20:50.418Z,339.31
2023-04-03T05:25:57.798Z,339.06
2023-04-03T05:31:14.311Z,339.35
2023-04-03T05:36:18.562Z,339.21
2023-04-03T05:41:26.172Z,339.06
2023-04-03T05:46:34.080Z,338.17
2023-04-03T05:51:44.758Z,338.48
2023-04-03T05:56:52.340Z,337.36
2023-04-03T06:02:05.972Z,337.16
2023-04-03T06:07:13.517Z,337.04
2023-04-03T06:12:21.039Z,337.12
2023-04-03T06:17:28.562Z,337.21
2023-04-03T06:22:35.892Z,336.98
2023-04-03T06:27:43.601Z,337.11
2023-04-03T06:32:57.953Z,336.58
2023-04-03T06:38:05.211Z,335.92
2023-04-03T06:43:48.149Z,336.07
2023-04-03T06:49:30.448Z,335.71
2023-04-03T06:54:37.894Z,335.57
2023-04-03T07:00:21.186Z,335.79
2023-04-03T07:05:28.630Z,335.57
2023-04-03T07:10:36.155Z,335.11
2023-04-03T07:15:51.827Z,334.54
2023-04-03T07:21:39.089Z,334.57
2023-04-03T07:26:47.555Z,334.78
2023-04-03T07:32:30.876Z,334.29
2023-04-03T07:37:38.876Z,334.09
2023-04-03T07:42:46.497Z,334.01
2023-04-03T07:47:59.292Z,333.22
2023-04-03T07:53:06.495Z,333.18
2023-04-03T07:58:17.488Z,333.17
2023-04-03T08:03:43.632Z,333.11
2023-04-03T08:08:40.897Z,332.74
2023-04-03T08:13:58.390Z,332.76
2023-04-03T08:19:26.076Z,332.63
2023-04-03T08:24:59.245Z,332.58
2023-04-03T08:30:01.835Z,332.64
2023-04-03T08:35:09.393Z,332.41
2023-04-03T08:45:42.038Z,332.86
2023-04-03T08:50:47.757Z,332.85
2023-04-03T08:55:55.410Z,333.24
2023-04-03T09:01:03.292Z,332.69
2023-04-03T09:06:25.496Z,331.73
2023-04-03T09:11:33.101Z,331.05
2023-04-03T09:16:40.549Z,332.19
2023-04-03T09:21:47.720Z,331.80
2023-04-03T09:27:01.666Z,331.42
2023-04-03T09:32:12.404Z,332.16
2023-04-03T09:37:34.724Z,332.07
2023-04-03T09:42:42.361Z,332.26
2023-04-03T09:47:49.662Z,331.86
2023-04-03T09:52:56.919Z,332.75
2023-04-03T09:58:04.266Z,332.42
2023-04-03T10:03:11.908Z,332.81
2023-04-03T10:08:19.458Z,333.53
2023-04-03T10:13:26.996Z,333.69
2023-04-03T10:18:34.658Z,333.99
2023-04-03T10:23:47.875Z,333.93
2023-04-03T10:28:55.225Z,333.94
2023-04-03T10:34:02.902Z,334.27
2023-04-03T10:39:10.023Z,334.57
2023-04-03T10:44:17.695Z,334.55
2023-04-03T10:49:31.520Z,334.85
2023-04-03T10:54:38.907Z,335.01
2023-04-03T10:59:48.389Z,335.71
2023-04-03T11:04:56.219Z,335.49
2023-04-03T11:10:03.307Z,336.16
2023-04-03T11:15:10.655Z,337.14
2023-04-03T11:20:18.132Z,337.19
2023-04-03T11:25:25.351Z,337.41
2023-04-03T11:30:40.786Z,337.90
2023-04-03T11:35:48.391Z,337.70
2023-04-03T11:40:55.710Z,338.05
2023-04-03T11:46:03.188Z,338.25
2023-04-03T11:51:10.633Z,338.53
2023-04-03T11:56:32.781Z,338.51
2023-04-03T12:01:40.366Z,339.20
2023-04-03T12:06:47.906Z,338.84
2023-04-03T12:11:55.173Z,339.14
2023-04-03T12:17:02.710Z,339.91
2023-04-03T12:22:10.212Z,340.30
2023-04-03T12:27:17.357Z,341.07
2023-04-03T12:32:25.011Z,341.35
2023-04-03T12:37:32.583Z,342.12
2023-04-03T12:42:47.714Z,342.32
2023-04-03T12:47:55.419Z,342.21
2023-04-03T12:53:02.830Z,342.59
2023-04-03T12:58:16.715Z,342.81
2023-04-03T13:03:39.459Z,343.50
2023-04-03T13:08:51.709Z,343.16
2023-04-03T13:13:59.681Z,343.26
2023-04-03T13:19:19.704Z,343.80
2023-04-03T13:24:27.310Z,343.73
2023-04-03T13:29:34.841Z,344.16
2023-04-03T13:34:42.363Z,344.42
2023-04-03T13:41:36.542Z,345.28
2023-04-03T13:46:43.981Z,345.93
2023-04-03T13:52:06.741Z,345.33
2023-04-03T13:57:08.824Z,345.58
2023-04-03T14:03:06.125Z,345.62
2023-04-03T14:08:13.441Z,346.30
2023-04-03T14:13:21.057Z,345.68
2023-04-03T14:18:30.999Z,345.64
2023-04-03T14:23:38.366Z,345.47
2023-04-03T14:28:45.962Z,345.54
2023-04-03T14:33:53.256Z,346.13
2023-04-03T14:39:00.716Z,346.15
2023-04-03T14:44:08.056Z,346.95
2023-04-03T14:49:15.521Z,347.05
2023-04-03T14:54:27.876Z,347.30
2023-04-03T14:59:33.219Z,347.09
2023-04-03T15:04:40.663Z,347.41
2023-04-03T15:09:47.918Z,347.28
2023-04-03T15:15:01.858Z,347.02
2023-04-03T15:20:02.810Z,347.32
2023-04-03T15:25:10.192Z,347.20
2023-04-03T15:30:17.632Z,347.10
2023-04-03T15:35:24.995Z,346.83
2023-04-03T15:40:32.376Z,346.52
2023-04-03T15:45:40.120Z,347.16
2023-04-03T15:50:47.310Z,347.19
2023-04-03T15:55:54.683Z,347.19
2023-04-03T16:01:02.153Z,346.73
2023-04-03T16:06:09.575Z,346.59
2023-04-03T16:11:16.902Z,346.04
2023-04-03T16:16:35.704Z,346.30
2023-04-03T16:21:51.669Z,346.55
2023-04-03T16:26:58.960Z,346.37
2023-04-03T16:32:10.620Z,346.72
2023-04-03T16:37:33.270Z,346.21
2023-04-03T16:42:40.825Z,346.46
2023-04-03T16:47:48.457Z,346.20
2023-04-03T16:52:55.986Z,346.45
2023-04-03T16:58:03.789Z,346.35
2023-04-03T17:03:11.486Z,345.90
2023-04-03T17:08:19.129Z,345.78
2023-04-03T17:14:01.637Z,345.71
2023-04-03T17:19:09.110Z,345.59
2023-04-03T17:24:16.455Z,345.67
2023-04-03T17:29:25.033Z,345.77
2023-04-03T17:34:32.510Z,345.73
2023-04-03T17:39:40.055Z,346.05
2023-04-03T17:44:47.774Z,346.00
2023-04-03T17:49:55.228Z,345.31
2023-04-03T17:55:02.361Z,345.66
2023-04-03T18:00:10.919Z,345.42
2023-04-03T18:05:18.378Z,345.73
2023-04-03T18:10:25.861Z,345.40
2023-04-03T18:15:33.255Z,345.32
2023-04-03T18:20:40.997Z,346.28
2023-04-03T18:25:48.402Z,346.12
2023-04-03T18:30:56.071Z,345.80
2023-04-03T18:36:04.066Z,345.73
2023-04-03T18:41:15.501Z,345.89
2023-04-03T18:46:23.490Z,345.56
2023-04-03T18:51:30.983Z,345.23
2023-04-03T18:56:38.699Z,345.25
2023-04-03T19:01:46.831Z,344.61
2023-04-03T19:06:54.661Z,344.45
2023-04-03T19:12:02.568Z,344.45
2023-04-03T19:17:10.602Z,344.79
2023-04-03T19:22:18.057Z,344.31
2023-04-03T19:28:00.771Z,344.64
2023-04-03T19:33:43.447Z,344.95
2023-04-03T19:39:48.329Z,345.78
2023-04-03T19:50:32.111Z,345.81
2023-04-03T19:56:40.245Z,345.82
2023-04-03T20:02:22.761Z,346.17
2023-04-03T20:08:21.374Z,345.95
2023-04-03T20:13:35.080Z,345.62
2023-04-03T20:18:56.046Z,346.32
2023-04-03T20:24:21.495Z,346.88
2023-04-03T20:29:38.167Z,346.57
2023-04-03T20:34:30.075Z,346.57
2023-04-03T20:39:42.752Z,346.66
2023-04-03T20:44:59.057Z,347.23
2023-04-03T20:50:12.981Z,347.63
2023-04-03T20:56:04.507Z,347.49
2023-04-03T21:01:16.206Z,348.17
2023-04-03T21:06:32.015Z,348.35
2023-04-03T21:17:04.059Z,347.94
2023-04-03T21:17:54.961Z,348.34
2023-04-03T21:22:46.745Z,348.47
2023-04-03T21:29:41.432Z,348.63
2023-04-03T21:33:16.714Z,349.28
2023-04-03T21:39:08.149Z,349.63
2023-04-03T21:44:26.694Z,349.40
2023-04-03T21:50:41.916Z,349.32
2023-04-03T21:55:43.522Z,349.80
2023-04-03T22:00:51.136Z,350.16
2023-04-03T22:06:38.559Z,349.99
2023-04-03T22:12:56.518Z,350.17
2023-04-03T22:17:59.546Z,350.04
2023-04-03T22:23:42.324Z,349.67
2023-04-03T22:29:11.390Z,349.25
2023-04-03T22:40:55.391Z,349.27
2023-04-03T22:45:30.418Z,348.85
2023-04-03T22:51:13.125Z,348.78
2023-04-03T22:56:55.959Z,348.58
2023-04-03T23:02:17.620Z,348.62
2023-04-03T23:07:28.013Z,348.78
2023-04-03T23:13:10.977Z,349.10
2023-04-03T23:18:31.862Z,348.83
2023-04-03T23:24:22.367Z,348.96
2023-04-03T23:29:35.240Z,348.74
2023-04-03T23:34:43.228Z,348.46
2023-04-03T23:40:35.955Z,348.71
2023-04-03T23:45:43.749Z,348.72
2023-04-03T23:51:35.569Z,349.53
2023-04-03T23:57:18.177Z,349.55
